Cincinnati, Indiana
Current Conditions -  °F | °C
As of 7:20 PM on Sunday 25 Jan 2015 (Local Time) from KBMG Reporting Station
Light Rain Light Rain  
Wind Chill: 32°   Ceiling: 1700
Heat Index: 37°   Visibility: 6mi
Dew Point: 36°   Wind: 7mph
Humidity: 96%   Direction: 40°NE
Pressure: 29.68"   Gusts: NA
Location:  39.0306°N, 86.8553°W
Report Text: KBMG 260020Z 04006KT 6SM -RA BR SCT009 OVC017 03/02 A2968 RMK AO2 P0000 T00280022 $
Loading
Personal Weather Stations






























Interactive Weather Map New forecast layout! Learn more

10-Day Weather Forecast

Advertisements
Track Severe Weather on mobile